Time;durP1;ratioP1;P1;durP2;ratioP2;P2;SDS_P1;SDS_P2;PMS_P1;PMS_P2;Temp;Humidity;BMP_temperature;BMP_pressure;BME280_temperature;BME280_humidity;BME280_pressure;Samples;Min_cycle;Max_cycle;Signal;HPM_P1;HPM_P2
2022/11/29 00:00:51;;;;;;;1.90;1.83;;;;;;;7.37;97.92;95164.75;4371081;32;20356;-61
2022/11/29 00:03:18;;;;;;;1.63;1.63;;;;;;;7.33;97.69;95163.72;4356063;32;20347;-61
2022/11/29 00:05:45;;;;;;;3.80;2.00;;;;;;;7.50;97.17;95164.09;4357701;32;20319;-61
2022/11/29 00:08:12;;;;;;;1.77;1.67;;;;;;;7.30;98.02;95164.25;4356261;32;20299;-62
2022/11/29 00:10:37;;;;;;;2.10;1.93;;;;;;;7.48;97.42;95160.19;4369718;32;20296;-61
2022/11/29 00:13:04;;;;;;;1.97;1.87;;;;;;;7.62;96.59;95155.03;4355185;32;20348;-61
2022/11/29 00:15:35;;;;;;;1.63;1.60;;;;;;;7.47;96.66;95154.13;4361337;32;20248;-61
2022/11/29 00:18:03;;;;;;;1.97;1.87;;;;;;;7.44;96.98;95159.94;4368340;32;20326;-60
2022/11/29 00:20:33;;;;;;;2.10;2.00;;;;;;;7.45;97.45;95163.38;4360843;32;20288;-61
2022/11/29 00:23:01;;;;;;;1.70;1.60;;;;;;;7.57;96.82;95159.28;4373850;32;20345;-61
2022/11/29 00:25:28;;;;;;;2.17;2.07;;;;;;;7.54;96.72;95162.47;4357876;32;20356;-61
2022/11/29 00:27:58;;;;;;;2.30;2.10;;;;;;;7.55;96.65;95156.13;4322329;32;20262;-61
2022/11/29 00:30:24;;;;;;;2.20;2.10;;;;;;;7.40;97.23;95156.28;4352356;32;20276;-61
2022/11/29 00:32:51;;;;;;;1.63;1.57;;;;;;;7.46;97.40;95157.03;4366285;32;20317;-61
2022/11/29 00:35:18;;;;;;;1.90;1.80;;;;;;;7.33;97.91;95150.53;4353497;32;20284;-61
2022/11/29 00:37:45;;;;;;;1.67;1.57;;;;;;;7.52;97.29;95150.62;4346416;32;20285;-61
2022/11/29 00:40:11;;;;;;;2.97;2.77;;;;;;;7.39;97.59;95148.63;4361382;32;20347;-61
2022/11/29 00:42:39;;;;;;;1.87;1.77;;;;;;;7.48;97.43;95142.47;4326173;32;20277;-61
2022/11/29 00:45:05;;;;;;;2.83;2.07;;;;;;;7.53;97.08;95145.06;4371752;32;20290;-61
2022/11/29 00:47:31;;;;;;;1.80;1.60;;;;;;;7.39;96.88;95144.16;4346906;32;20281;-61
2022/11/29 00:49:57;;;;;;;1.67;1.60;;;;;;;7.41;97.40;95144.66;4356177;32;20286;-61
2022/11/29 00:52:24;;;;;;;1.80;1.70;;;;;;;7.62;97.26;95145.25;4360086;32;20257;-61
2022/11/29 00:54:51;;;;;;;0.87;0.87;;;;;;;7.34;97.81;95136.28;4380126;32;20273;-61
2022/11/29 00:57:16;;;;;;;1.97;1.87;;;;;;;7.41;98.19;95144.66;4364243;32;20299;-61
2022/11/29 00:59:46;;;;;;;1.53;1.53;;;;;;;7.20;98.94;95151.97;4373884;32;20281;-61
2022/11/29 01:02:13;;;;;;;1.10;1.10;;;;;;;7.54;98.06;95145.84;4351524;32;20201;-61
2022/11/29 01:04:40;;;;;;;1.27;0.93;;;;;;;7.35;98.51;95150.25;4370563;32;20360;-61
2022/11/29 01:07:05;;;;;;;1.53;1.43;;;;;;;7.36;98.47;95152.63;4366529;32;20316;-61
2022/11/29 01:09:32;;;;;;;1.00;1.00;;;;;;;7.33;98.62;95147.88;4372056;32;20303;-61
2022/11/29 01:11:58;;;;;;;1.80;1.03;;;;;;;7.34;98.09;95149.47;4370421;32;20258;-62
2022/11/29 01:14:24;;;;;;;1.03;1.03;;;;;;;7.33;98.42;95142.59;4379892;32;20276;-61
2022/11/29 01:16:51;;;;;;;1.23;1.23;;;;;;;7.36;98.35;95142.06;4377561;32;20276;-61
2022/11/29 01:19:17;;;;;;;0.70;0.70;;;;;;;7.37;98.54;95148.13;4376026;32;20185;-61
2022/11/29 01:21:42;;;;;;;2.50;1.40;;;;;;;7.56;97.72;95141.09;4361255;32;20322;-61
2022/11/29 01:24:07;;;;;;;0.97;0.97;;;;;;;7.48;98.07;95147.75;4359400;32;20288;-62
2022/11/29 01:26:33;;;;;;;0.77;0.77;;;;;;;7.63;97.44;95144.19;4376635;32;20189;-61
2022/11/29 01:29:00;;;;;;;1.53;1.43;;;;;;;7.49;97.76;95149.31;4333426;32;20343;-61
2022/11/29 01:31:35;;;;;;;0.53;0.53;;;;;;;7.62;97.30;95147.13;4363859;32;20300;-61
2022/11/29 01:34:02;;;;;;;3.90;0.90;;;;;;;7.67;96.96;95145.22;4371256;32;20355;-61
2022/11/29 01:36:31;;;;;;;1.10;1.10;;;;;;;7.56;97.31;95141.88;4353847;32;20285;-61
2022/11/29 01:39:06;;;;;;;0.70;0.70;;;;;;;7.45;97.89;95143.06;4356082;32;20296;-61
2022/11/29 01:41:38;;;;;;;1.47;1.37;;;;;;;7.50;97.78;95147.47;4383247;32;20279;-61
2022/11/29 01:44:12;;;;;;;1.07;1.07;;;;;;;7.60;97.98;95150.03;4384141;32;20317;-61
2022/11/29 01:46:45;;;;;;;0.63;0.63;;;;;;;7.66;97.61;95146.28;4357501;32;20308;-62
2022/11/29 01:49:32;;;;;;;0.73;0.73;;;;;;;7.66;97.64;95140.22;4385516;32;20299;-62
2022/11/29 01:52:08;;;;;;;0.60;0.60;;;;;;;7.35;98.10;95144.97;4375473;32;20409;-61
2022/11/29 01:54:40;;;;;;;0.53;0.53;;;;;;;7.36;98.98;95146.56;4360899;32;20288;-61
2022/11/29 01:57:13;;;;;;;2.40;1.83;;;;;;;7.47;98.62;95137.50;4336981;32;20416;-64
2022/11/29 01:59:46;;;;;;;0.83;0.83;;;;;;;7.39;98.79;95136.22;4351840;32;20296;-61
2022/11/29 02:02:17;;;;;;;0.40;0.40;;;;;;;7.62;97.85;95132.06;4378681;32;20284;-61
2022/11/29 02:04:45;;;;;;;1.50;1.40;;;;;;;7.62;97.66;95139.19;4382235;32;20299;-62
2022/11/29 02:07:12;;;;;;;0.60;0.60;;;;;;;7.65;97.28;95141.28;4378623;32;20279;-62
2022/11/29 02:09:37;;;;;;;0.70;0.70;;;;;;;7.57;97.83;95142.66;4388362;32;20263;-61
2022/11/29 02:12:24;;;;;;;1.07;1.07;;;;;;;7.54;97.84;95128.16;4382083;32;20316;-61
2022/11/29 02:15:23;;;;;;;0.87;0.87;;;;;;;7.57;97.70;95134.75;4351810;32;20315;-61
2022/11/29 02:18:13;;;;;;;2.83;0.90;;;;;;;7.53;98.00;95134.50;4374114;32;20292;-61
2022/11/29 02:21:03;;;;;;;0.67;0.67;;;;;;;7.38;98.39;95134.66;4383997;32;20280;-61
2022/11/29 02:24:09;;;;;;;3.40;1.27;;;;;;;7.50;98.37;95139.56;4389787;32;20318;-61
2022/11/29 02:27:04;;;;;;;0.70;0.70;;;;;;;7.50;98.24;95137.69;4380502;32;20279;-61
2022/11/29 02:30:05;;;;;;;0.97;0.97;;;;;;;7.51;98.74;95136.63;4383287;32;20347;-61
2022/11/29 02:33:09;;;;;;;1.20;1.20;;;;;;;7.44;98.95;95136.19;4345117;32;20328;-61
2022/11/29 02:36:06;;;;;;;0.83;0.83;;;;;;;7.47;98.97;95133.00;4369391;32;20306;-61
2022/11/29 02:39:09;;;;;;;0.50;0.50;;;;;;;7.53;98.49;95139.78;4363931;32;20291;-61
2022/11/29 02:42:04;;;;;;;0.53;0.53;;;;;;;7.67;97.59;95136.53;4338454;32;20290;-61
2022/11/29 02:44:52;;;;;;;0.83;0.63;;;;;;;7.62;98.53;95132.06;4369067;32;20366;-61
2022/11/29 02:47:56;;;;;;;0.63;0.63;;;;;;;7.67;97.48;95134.66;4380476;32;20303;-61
2022/11/29 02:51:03;;;;;;;0.50;0.50;;;;;;;7.51;97.93;95133.22;4352890;32;20276;-61
2022/11/29 02:54:11;;;;;;;0.60;0.60;;;;;;;7.32;98.74;95138.41;4361744;32;20328;-62
2022/11/29 02:56:59;;;;;;;0.43;0.43;;;;;;;7.47;98.85;95135.66;4362206;32;20276;-61
2022/11/29 03:00:00;;;;;;;0.60;0.60;;;;;;;7.37;99.01;95134.94;4384132;32;20272;-61
2022/11/29 03:02:41;;;;;;;0.77;0.57;;;;;;;7.60;98.55;95131.56;4344278;32;20315;-61
2022/11/29 03:05:51;;;;;;;0.53;0.53;;;;;;;7.42;98.55;95140.97;4364997;32;20284;-61
2022/11/29 03:08:36;;;;;;;0.80;0.63;;;;;;;7.61;98.10;95146.31;4348736;32;20321;-61
2022/11/29 03:11:30;;;;;;;0.97;0.97;;;;;;;7.66;97.52;95150.78;4379094;32;20306;-61
2022/11/29 03:14:39;;;;;;;0.63;0.63;;;;;;;7.50;97.86;95147.47;4339041;32;20333;-61
2022/11/29 03:17:40;;;;;;;0.73;0.73;;;;;;;7.58;97.68;95145.03;4369734;32;20288;-61
2022/11/29 03:20:48;;;;;;;0.53;0.53;;;;;;;7.72;97.51;95147.00;4354634;32;20277;-61
2022/11/29 03:23:48;;;;;;;1.20;1.10;;;;;;;7.52;97.97;95158.53;4353265;32;20273;-61
2022/11/29 03:26:31;;;;;;;0.67;0.67;;;;;;;7.61;97.70;95161.37;4373133;32;20291;-62
2022/11/29 03:29:17;;;;;;;0.53;0.53;;;;;;;7.74;97.43;95163.34;4356905;32;20331;-62
2022/11/29 03:32:24;;;;;;;0.87;0.87;;;;;;;7.51;97.78;95162.25;4363915;32;20280;-61
2022/11/29 03:35:24;;;;;;;0.80;0.80;;;;;;;7.50;98.23;95166.72;4360795;32;20355;-61
2022/11/29 03:38:24;;;;;;;0.77;0.63;;;;;;;7.54;98.47;95173.03;4378118;32;20280;-61
2022/11/29 03:41:12;;;;;;;0.50;0.50;;;;;;;7.68;98.14;95165.28;4362324;32;20296;-61
2022/11/29 03:44:02;;;;;;;0.23;0.23;;;;;;;7.64;97.72;95168.75;4379922;32;20354;-64
2022/11/29 03:47:05;;;;;;;0.63;0.63;;;;;;;7.55;98.18;95164.06;4365500;32;20354;-61
2022/11/29 03:50:11;;;;;;;1.80;0.60;;;;;;;7.43;98.33;95168.94;4375550;32;20385;-61
2022/11/29 03:53:12;;;;;;;0.60;0.60;;;;;;;7.25;99.19;95166.97;4353316;32;20284;-61
2022/11/29 03:55:59;;;;;;;0.60;0.60;;;;;;;7.25;99.45;95174.88;4295893;32;20374;-62
2022/11/29 03:59:02;;;;;;;0.43;0.43;;;;;;;7.27;99.53;95166.69;4333376;32;20285;-61
2022/11/29 04:01:59;;;;;;;0.93;0.93;;;;;;;7.37;99.46;95169.22;4357329;32;20421;-61
2022/11/29 04:04:46;;;;;;;0.87;0.87;;;;;;;7.41;98.83;95168.41;4372299;32;20326;-61
2022/11/29 04:07:48;;;;;;;1.30;1.30;;;;;;;7.52;98.36;95166.47;4388251;32;20317;-60
2022/11/29 04:10:52;;;;;;;0.90;0.90;;;;;;;7.48;98.76;95166.22;4285229;33;20291;-61
2022/11/29 04:13:42;;;;;;;0.67;0.67;;;;;;;7.52;98.29;95166.47;4374876;32;20308;-61
2022/11/29 04:16:59;;;;;;;0.67;0.67;;;;;;;7.39;98.47;95167.91;4377979;32;20340;-62
2022/11/29 04:20:09;;;;;;;0.40;0.40;;;;;;;7.30;99.37;95174.03;4290062;32;20316;-61
2022/11/29 04:22:56;;;;;;;0.50;0.50;;;;;;;7.36;99.13;95165.03;4378404;32;20287;-60
2022/11/29 04:25:56;;;;;;;0.43;0.43;;;;;;;7.21;99.57;95163.28;4369057;32;20319;-61
2022/11/29 04:29:00;;;;;;;1.07;1.07;;;;;;;7.28;99.98;95162.97;4385609;32;20290;-61
2022/11/29 04:32:03;;;;;;;0.80;0.80;;;;;;;7.33;98.95;95163.72;4378254;32;20280;-61
2022/11/29 04:34:51;;;;;;;0.80;0.80;;;;;;;7.42;98.84;95156.00;4377527;32;20382;-61
2022/11/29 04:38:08;;;;;;;0.83;0.83;;;;;;;7.41;98.71;95159.72;4334642;32;20296;-61
2022/11/29 04:41:04;;;;;;;0.30;0.30;;;;;;;7.54;97.98;95153.78;4277776;33;20317;-61
2022/11/29 04:44:07;;;;;;;0.70;0.70;;;;;;;7.11;99.00;95161.50;4335397;33;20301;-61
2022/11/29 04:46:44;;;;;;;0.70;0.70;;;;;;;7.33;98.87;95166.34;4332184;32;20366;-61
2022/11/29 04:49:44;;;;;;;0.43;0.43;;;;;;;7.23;98.85;95163.81;4375042;32;20298;-61
2022/11/29 04:52:40;;;;;;;0.23;0.23;;;;;;;7.35;98.57;95171.34;4348982;32;20294;-61
2022/11/29 04:55:27;;;;;;;3.20;0.53;;;;;;;7.30;98.50;95166.13;4357320;32;20290;-61
2022/11/29 04:58:31;;;;;;;0.50;0.50;;;;;;;7.35;98.64;95171.34;4315734;32;20282;-60
2022/11/29 05:01:17;;;;;;;0.77;0.77;;;;;;;7.40;97.91;95172.12;4340753;32;20285;-61
2022/11/29 05:04:14;;;;;;;1.00;1.00;;;;;;;7.34;97.80;95175.06;4363904;32;20281;-61
2022/11/29 05:07:15;;;;;;;0.40;0.40;;;;;;;7.29;98.46;95167.97;4379696;32;20314;-61
2022/11/29 05:10:17;;;;;;;0.30;0.30;;;;;;;7.25;98.63;95174.88;4325141;32;20276;-61
2022/11/29 05:13:45;;;;;;;0.43;0.43;;;;;;;7.45;97.85;95166.00;4384685;32;20286;-61
2022/11/29 05:16:28;;;;;;;1.10;1.00;;;;;;;7.34;98.31;95181.12;4339934;32;20312;-61
2022/11/29 05:19:15;;;;;;;0.60;0.60;;;;;;;7.33;98.35;95176.91;4374328;32;20281;-61
2022/11/29 05:22:19;;;;;;;0.40;0.40;;;;;;;7.36;98.56;95178.22;4345557;32;20285;-62
2022/11/29 05:25:06;;;;;;;0.30;0.30;;;;;;;7.09;99.28;95189.22;4380775;32;20290;-61
2022/11/29 05:28:07;;;;;;;0.23;0.23;;;;;;;7.12;99.33;95184.19;4366482;32;20276;-61
2022/11/29 05:31:04;;;;;;;0.63;0.63;;;;;;;7.17;99.06;95180.72;4347056;32;20285;-61
2022/11/29 05:33:50;;;;;;;0.60;0.60;;;;;;;6.99;99.32;95184.03;4363600;32;20314;-61
2022/11/29 05:36:53;;;;;;;0.63;0.63;;;;;;;6.92;100.00;95189.59;4352235;32;20319;-61
2022/11/29 05:39:53;;;;;;;0.70;0.70;;;;;;;7.06;99.81;95182.66;4362010;32;20378;-61
2022/11/29 05:42:48;;;;;;;1.17;1.13;;;;;;;7.03;99.86;95185.84;4333204;32;20297;-61
2022/11/29 05:45:41;;;;;;;0.57;0.57;;;;;;;6.96;99.66;95195.91;4347642;32;20365;-61
2022/11/29 05:49:03;;;;;;;1.00;1.00;;;;;;;6.83;100.00;95197.31;4386778;32;20288;-63
2022/11/29 05:51:57;;;;;;;0.60;0.60;;;;;;;6.97;99.96;95197.47;4309763;33;20284;-61
2022/11/29 05:55:03;;;;;;;1.37;1.27;;;;;;;6.79;100.00;95200.75;4375390;32;20304;-61
2022/11/29 05:58:13;;;;;;;0.70;0.70;;;;;;;6.91;100.00;95195.91;4375068;32;20331;-61
2022/11/29 06:01:09;;;;;;;0.30;0.30;;;;;;;7.07;99.41;95207.16;4361126;32;20293;-62
2022/11/29 06:03:50;;;;;;;2.80;1.23;;;;;;;7.16;98.98;95200.25;4372626;32;20289;-61
2022/11/29 06:06:45;;;;;;;0.63;0.63;;;;;;;7.11;99.28;95200.28;4343328;32;20322;-62
2022/11/29 06:09:53;;;;;;;0.50;0.50;;;;;;;7.09;99.09;95202.41;4376308;32;20300;-61
2022/11/29 06:12:23;;;;;;;0.90;0.90;;;;;;;7.16;98.88;95201.03;4372915;32;20343;-62
2022/11/29 06:15:16;;;;;;;0.50;0.50;;;;;;;7.28;98.27;95200.69;4364903;32;20291;-62
2022/11/29 06:18:21;;;;;;;0.43;0.43;;;;;;;7.32;98.44;95208.84;4349475;32;20315;-62
2022/11/29 06:21:11;;;;;;;1.00;1.00;;;;;;;7.20;98.40;95201.28;4347478;32;20347;-61
2022/11/29 06:24:07;;;;;;;1.87;0.70;;;;;;;7.12;98.45;95209.78;4341206;32;20300;-61
2022/11/29 06:27:01;;;;;;;2.13;0.70;;;;;;;7.20;98.71;95207.34;4375030;32;20277;-62
2022/11/29 06:30:05;;;;;;;0.90;0.90;;;;;;;7.23;97.59;95212.09;4324082;32;20342;-62
2022/11/29 06:33:29;;;;;;;0.77;0.73;;;;;;;6.98;98.33;95219.38;4349862;32;20271;-62
2022/11/29 06:36:15;;;;;;;0.30;0.30;;;;;;;6.98;99.02;95214.09;4334904;32;20297;-62
2022/11/29 06:38:43;;;;;;;0.47;0.47;;;;;;;7.00;98.43;95217.25;4314465;32;20353;-63
2022/11/29 06:41:20;;;;;;;2.80;0.47;;;;;;;6.83;99.00;95223.66;4362997;32;20319;-62
2022/11/29 06:43:50;;;;;;;0.47;0.47;;;;;;;6.93;99.01;95217.53;4380310;32;20347;-61
2022/11/29 06:47:20;;;;;;;0.20;0.20;;;;;;;6.97;98.53;95223.84;4363093;32;20362;-61
2022/11/29 06:50:14;;;;;;;0.53;0.53;;;;;;;6.84;98.85;95225.25;4345820;32;20264;-61
2022/11/29 06:53:07;;;;;;;0.53;0.53;;;;;;;6.74;98.67;95224.50;4344825;32;20308;-62
2022/11/29 06:55:58;;;;;;;0.20;0.20;;;;;;;6.71;99.08;95225.03;4321397;32;20450;-62
2022/11/29 06:58:55;;;;;;;0.30;0.30;;;;;;;6.70;99.46;95218.97;4381715;32;20298;-61
2022/11/29 07:02:00;;;;;;;0.67;0.67;;;;;;;6.73;98.95;95228.19;4320250;32;20295;-62
2022/11/29 07:04:50;;;;;;;6.80;0.60;;;;;;;6.76;98.93;95232.91;4297427;32;20293;-61
2022/11/29 07:07:21;;;;;;;0.43;0.43;;;;;;;6.64;99.43;95237.72;4368345;32;20277;-62
2022/11/29 07:09:52;;;;;;;0.50;0.50;;;;;;;6.64;99.85;95240.38;4343380;32;20350;-61
2022/11/29 07:12:20;;;;;;;0.70;0.70;;;;;;;6.73;99.70;95234.25;4352084;32;20281;-62
2022/11/29 07:14:46;;;;;;;0.73;0.73;;;;;;;6.86;99.11;95244.19;4345979;32;20395;-61
2022/11/29 07:17:38;;;;;;;0.40;0.40;;;;;;;6.93;98.89;95237.84;4366847;32;20265;-42
2022/11/29 07:20:37;;;;;;;1.03;1.00;;;;;;;7.68;100.00;95225.22;4345850;32;20177;-42
2022/11/29 07:23:27;;;;;;;7.20;0.97;;;;;;;10.47;100.00;95230.16;4330854;32;20385;-47
2022/11/29 07:26:30;;;;;;;1.47;0.63;;;;;;;11.05;97.12;95237.50;4370613;32;20295;-44
2022/11/29 07:29:47;;;;;;;0.90;0.90;;;;;;;11.76;86.32;95241.25;4365122;32;20468;-45
2022/11/29 07:33:03;;;;;;;1.10;1.00;;;;;;;12.12;80.38;95243.03;4358245;32;20200;-43
2022/11/29 07:36:30;;;;;;;1.10;1.10;;;;;;;12.59;77.00;95241.53;4362360;32;20303;-42
2022/11/29 07:39:17;;;;;;;0.80;0.80;;;;;;;12.54;75.88;95236.34;4266430;33;20216;-43
2022/11/29 07:41:54;;;;;;;3.10;1.20;;;;;;;12.73;74.28;95244.87;4259045;33;20190;-47
2022/11/29 07:44:46;;;;;;;1.00;1.00;;;;;;;12.84;73.38;95240.06;4334949;32;20192;-43
2022/11/29 07:47:13;;;;;;;0.90;0.90;;;;;;;12.54;71.81;95244.34;4383872;32;20235;-45
2022/11/29 07:49:39;;;;;;;0.77;0.77;;;;;;;12.81;72.78;95238.78;4377919;32;20189;-42
2022/11/29 07:52:04;;;;;;;0.63;0.63;;;;;;;13.23;79.18;95242.69;4372070;32;20189;-62
2022/11/29 07:54:31;;;;;;;1.00;1.00;;;;;;;12.10;73.66;95250.53;4382995;32;21398;-58
2022/11/29 07:56:58;;;;;;;0.73;0.73;;;;;;;11.70;73.94;95253.84;4379076;32;20197;-60
2022/11/29 07:59:25;;;;;;;0.77;0.77;;;;;;;10.41;78.59;95249.91;4364815;32;20214;-59
2022/11/29 08:01:52;;;;;;;0.87;0.87;;;;;;;10.11;80.14;95261.81;4343887;32;20207;-59
2022/11/29 08:04:18;;;;;;;2.10;1.03;;;;;;;9.57;82.33;95257.91;4367192;32;20200;-59
2022/11/29 08:06:45;;;;;;;0.80;0.80;;;;;;;9.25;84.23;95260.50;4366170;32;20189;-60
2022/11/29 08:09:11;;;;;;;0.87;0.87;;;;;;;8.83;86.85;95256.81;4366287;32;20226;-59
2022/11/29 08:11:37;;;;;;;0.50;0.50;;;;;;;8.36;88.80;95264.75;4363081;32;20192;-60
2022/11/29 08:14:10;;;;;;;0.53;0.53;;;;;;;8.42;88.93;95250.41;4365684;32;20193;-60
2022/11/29 08:16:40;;;;;;;1.00;1.00;;;;;;;8.36;89.36;95256.81;4382492;32;20193;-58
2022/11/29 08:19:07;;;;;;;0.67;0.67;;;;;;;7.92;90.82;95260.37;4334913;32;20199;-59
2022/11/29 08:21:33;;;;;;;1.77;1.20;;;;;;;7.87;91.86;95268.34;4367994;32;20195;-60
2022/11/29 08:24:03;;;;;;;0.90;0.50;;;;;;;7.93;92.01;95264.59;4353850;32;20242;-61
2022/11/29 08:26:32;;;;;;;0.60;0.60;;;;;;;8.06;91.42;95261.31;4382560;32;20359;-60
2022/11/29 08:28:58;;;;;;;1.00;1.00;;;;;;;8.21;91.14;95263.00;4356618;32;20273;-59
2022/11/29 08:31:23;;;;;;;0.73;0.73;;;;;;;8.09;91.49;95268.69;4374414;32;20176;-59
2022/11/29 08:33:49;;;;;;;0.87;0.60;;;;;;;8.08;91.66;95264.47;4368772;32;20362;-58
2022/11/29 08:36:19;;;;;;;0.67;0.67;;;;;;;8.04;91.91;95260.81;4366459;32;20242;-59
2022/11/29 08:38:47;;;;;;;0.80;0.80;;;;;;;8.07;92.00;95262.88;4313105;32;20194;-59
2022/11/29 08:41:15;;;;;;;0.37;0.37;;;;;;;8.12;92.18;95260.19;4334374;32;20307;-61
2022/11/29 08:43:41;;;;;;;1.13;0.73;;;;;;;8.24;91.41;95271.19;4342285;32;20296;-62
2022/11/29 08:46:10;;;;;;;0.37;0.37;;;;;;;8.16;91.36;95263.06;4362245;32;20298;-60
2022/11/29 08:48:36;;;;;;;0.50;0.50;;;;;;;7.97;91.52;95270.88;4329854;32;20368;-60
2022/11/29 08:51:04;;;;;;;3.13;0.67;;;;;;;8.08;91.61;95269.75;4334301;32;20277;-61
2022/11/29 08:53:41;;;;;;;0.33;0.33;;;;;;;8.04;92.41;95267.94;4381844;32;20199;-59
2022/11/29 08:56:20;;;;;;;2.37;1.13;;;;;;;8.07;91.97;95268.16;4372078;32;20268;-59
2022/11/29 08:58:48;;;;;;;0.60;0.60;;;;;;;7.96;91.99;95274.59;4348861;32;20276;-59
2022/11/29 09:01:17;;;;;;;1.50;1.40;;;;;;;8.10;92.24;95270.25;4366162;32;20302;-59
2022/11/29 09:04:01;;;;;;;0.40;0.40;;;;;;;8.22;91.36;95275.94;4373966;32;20289;-60
2022/11/29 09:06:39;;;;;;;1.27;1.23;;;;;;;8.19;90.92;95278.34;4351952;32;20347;-59
2022/11/29 09:09:08;;;;;;;1.17;1.17;;;;;;;8.42;90.14;95282.13;4356987;32;20277;-59
2022/11/29 09:11:35;;;;;;;0.80;0.80;;;;;;;8.26;91.19;95281.47;4366224;32;20308;-60
2022/11/29 09:14:06;;;;;;;1.00;1.00;;;;;;;8.32;91.17;95285.66;4303960;32;20375;-58
2022/11/29 09:16:37;;;;;;;0.90;0.90;;;;;;;8.40;90.78;95284.25;4355193;32;20276;-44
2022/11/29 09:19:10;;;;;;;1.27;1.17;;;;;;;11.47;100.00;95276.16;4354608;32;20211;-42
2022/11/29 09:21:38;;;;;;;0.70;0.70;;;;;;;12.77;88.63;95283.09;4319936;32;20197;-44
2022/11/29 09:24:05;;;;;;;0.47;0.47;;;;;;;13.87;78.60;95285.50;4350959;32;20201;-41
2022/11/29 09:26:34;;;;;;;0.73;0.73;;;;;;;14.80;71.83;95279.50;4360677;32;20188;-42
2022/11/29 09:29:07;;;;;;;0.87;0.87;;;;;;;15.29;66.96;95287.94;4371750;32;20180;-42
2022/11/29 09:31:34;;;;;;;0.50;0.50;;;;;;;15.68;64.06;95287.53;4351863;32;20256;-42
2022/11/29 09:33:59;;;;;;;0.67;0.67;;;;;;;15.87;63.60;95294.31;4361889;32;20264;-43
2022/11/29 09:36:28;;;;;;;3.80;1.60;;;;;;;16.05;62.08;95295.72;4365497;32;20210;-44
2022/11/29 09:39:01;;;;;;;1.40;1.30;;;;;;;16.18;61.29;95294.69;4367836;32;20211;-46
2022/11/29 09:42:18;;;;;;;1.33;0.80;;;;;;;15.91;61.18;95303.25;4362328;32;20224;-41
2022/11/29 09:45:05;;;;;;;1.27;1.00;;;;;;;15.65;59.79;95298.87;4294644;33;20202;-61
2022/11/29 09:48:03;;;;;;;0.63;0.50;;;;;;;13.76;64.34;95292.25;4289362;33;20304;-61
2022/11/29 09:51:08;;;;;;;0.57;0.57;;;;;;;12.45;68.66;95299.41;4316560;32;20200;-61
2022/11/29 09:54:27;;;;;;;0.63;0.63;;;;;;;11.02;75.30;95301.78;4329981;32;20237;-62
2022/11/29 09:56:56;;;;;;;1.33;1.23;;;;;;;10.62;77.91;95303.34;4337640;32;20198;-61
2022/11/29 09:59:46;;;;;;;1.20;1.17;;;;;;;9.86;81.10;95301.97;4331403;32;20197;-60
2022/11/29 10:02:46;;;;;;;0.50;0.50;;;;;;;9.88;81.00;95302.47;4322509;32;20189;-64
2022/11/29 10:05:33;;;;;;;0.30;0.30;;;;;;;9.19;84.62;95306.63;4358145;32;20219;-60
2022/11/29 10:08:05;;;;;;;0.80;0.80;;;;;;;9.49;84.15;95311.53;4361414;32;20251;-61
2022/11/29 10:10:39;;;;;;;1.30;1.20;;;;;;;9.34;84.97;95306.44;4384732;32;20224;-60
2022/11/29 10:13:23;;;;;;;0.73;0.73;;;;;;;9.21;85.79;95304.47;4360222;32;20202;-60
2022/11/29 10:15:55;;;;;;;1.30;1.20;;;;;;;8.88;86.87;95303.56;4384835;32;20232;-61
2022/11/29 10:18:52;;;;;;;0.60;0.60;;;;;;;8.57;88.14;95295.19;4384821;32;20188;-61
2022/11/29 10:21:22;;;;;;;1.10;0.83;;;;;;;9.10;86.34;95297.75;4370255;32;20200;-60
2022/11/29 10:23:55;;;;;;;0.53;0.53;;;;;;;9.08;86.32;95294.59;4382770;32;20247;-60
2022/11/29 10:26:21;;;;;;;0.80;0.80;;;;;;;9.24;85.65;95294.12;4391052;32;20192;-62
2022/11/29 10:28:48;;;;;;;1.00;1.00;;;;;;;9.36;85.28;95298.97;4391484;32;20223;-60
2022/11/29 10:31:25;;;;;;;0.70;0.70;;;;;;;9.37;85.32;95295.25;4372826;32;20211;-60
2022/11/29 10:33:53;;;;;;;0.80;0.80;;;;;;;9.28;84.84;95297.78;4369081;32;20203;-59
2022/11/29 10:36:28;;;;;;;0.87;0.87;;;;;;;9.45;84.18;95297.28;4374566;32;20181;-59
2022/11/29 10:39:02;;;;;;;1.40;0.97;;;;;;;9.32;84.37;95287.41;4379560;32;20266;-61
2022/11/29 10:41:27;;;;;;;1.73;1.00;;;;;;;9.30;85.12;95292.19;4382722;32;20228;-62
2022/11/29 10:43:56;;;;;;;0.50;0.50;;;;;;;9.71;83.72;95283.66;4386534;32;20267;-61
2022/11/29 10:46:28;;;;;;;1.80;1.00;;;;;;;9.81;82.48;95288.78;4366378;32;20184;-60
2022/11/29 10:48:56;;;;;;;1.30;1.20;;;;;;;9.93;83.00;95287.28;4387333;32;20252;-60
2022/11/29 10:51:22;;;;;;;0.60;0.60;;;;;;;9.81;82.61;95286.94;4385747;32;20243;-61
2022/11/29 10:53:51;;;;;;;3.30;0.80;;;;;;;9.45;83.74;95286.69;4362216;32;20264;-60
2022/11/29 10:56:28;;;;;;;4.83;1.13;;;;;;;9.51;84.66;95280.25;4376504;32;20173;-61
2022/11/29 10:59:01;;;;;;;0.57;0.57;;;;;;;9.25;85.74;95292.25;4375394;32;20215;-62
2022/11/29 11:01:28;;;;;;;0.97;0.90;;;;;;;9.18;86.59;95286.53;4382736;32;20216;-60
2022/11/29 11:03:56;;;;;;;0.37;0.37;;;;;;;9.44;85.41;95282.47;4375811;32;20230;-60
2022/11/29 11:06:23;;;;;;;1.80;0.87;;;;;;;9.40;85.76;95286.75;4379641;32;20197;-62
2022/11/29 11:09:10;;;;;;;0.87;0.87;;;;;;;9.27;85.78;95290.13;4359878;32;20199;-60
2022/11/29 11:11:35;;;;;;;1.13;1.13;;;;;;;9.32;85.43;95295.34;4377634;32;20208;-61
2022/11/29 11:14:04;;;;;;;1.00;1.00;;;;;;;9.25;85.22;95285.09;4368802;32;20203;-61
2022/11/29 11:16:30;;;;;;;0.23;0.23;;;;;;;9.11;85.96;95288.75;4375171;32;20199;-62
2022/11/29 11:18:56;;;;;;;0.30;0.30;;;;;;;9.06;86.11;95286.16;4381257;32;20196;-62
2022/11/29 11:21:24;;;;;;;0.50;0.50;;;;;;;8.80;86.56;95290.97;4356579;32;20193;-61
2022/11/29 11:23:53;;;;;;;0.40;0.40;;;;;;;8.80;86.93;95283.81;4360405;32;20206;-62
2022/11/29 11:26:19;;;;;;;0.30;0.30;;;;;;;8.90;86.95;95293.50;4370170;32;20184;-62
2022/11/29 11:28:49;;;;;;;0.63;0.63;;;;;;;8.93;88.26;95295.59;4380552;32;20192;-61
2022/11/29 11:31:24;;;;;;;0.50;0.50;;;;;;;9.11;87.57;95292.19;4388163;32;20266;-61
2022/11/29 11:33:49;;;;;;;0.37;0.37;;;;;;;9.23;86.46;95295.19;4378271;32;20195;-62
2022/11/29 11:36:22;;;;;;;0.33;0.33;;;;;;;9.18;86.05;95291.81;4374665;32;20230;-62
2022/11/29 11:38:52;;;;;;;0.40;0.40;;;;;;;9.43;84.96;95298.63;4366438;32;20239;-62
2022/11/29 11:44:35;;;;;;;0.20;0.20;;;;;;;9.67;83.74;95294.06;4372983;32;20195;-61
2022/11/29 11:47:04;;;;;;;0.27;0.27;;;;;;;9.69;83.24;95293.75;4370913;32;20252;-61
2022/11/29 11:49:46;;;;;;;0.27;0.27;;;;;;;9.89;82.65;95296.09;4382188;32;20264;-62
2022/11/29 11:52:26;;;;;;;0.30;0.30;;;;;;;9.93;82.84;95295.25;4372514;32;20195;-61
2022/11/29 11:54:56;;;;;;;0.30;0.30;;;;;;;9.99;82.67;95299.38;4368105;32;20249;-61
2022/11/29 11:57:23;;;;;;;0.30;0.30;;;;;;;10.11;81.94;95288.31;4383138;32;20248;-61
2022/11/29 11:59:51;;;;;;;0.60;0.60;;;;;;;10.28;81.29;95298.41;4374307;32;20188;-62
2022/11/29 12:02:26;;;;;;;0.30;0.30;;;;;;;10.29;80.96;95290.16;4383400;32;20252;-62
2022/11/29 12:04:56;;;;;;;0.43;0.43;;;;;;;10.00;82.79;95300.16;4368965;32;20222;-62
2022/11/29 12:07:54;;;;;;;0.53;0.53;;;;;;;9.55;84.45;95305.09;4361128;32;20244;-61
2022/11/29 12:10:24;;;;;;;0.30;0.30;;;;;;;9.74;83.37;95299.00;4366949;32;20207;-61
2022/11/29 12:12:51;;;;;;;0.77;0.70;;;;;;;9.75;82.81;95297.91;4384441;32;20196;-61
2022/11/29 12:15:22;;;;;;;0.70;0.70;;;;;;;10.03;82.28;95294.28;4381768;32;20184;-61
2022/11/29 12:17:50;;;;;;;0.47;0.47;;;;;;;10.13;81.48;95299.41;4379753;32;20260;-61
2022/11/29 12:20:27;;;;;;;0.00;0.00;;;;;;;9.64;83.18;95295.41;4367557;32;20211;-61
2022/11/29 12:22:52;;;;;;;0.13;0.13;;;;;;;9.69;81.76;95301.72;4375824;32;20285;-61
2022/11/29 12:25:24;;;;;;;0.77;0.53;;;;;;;9.48;82.55;95302.00;4360177;32;20180;-61
2022/11/29 12:27:50;;;;;;;0.03;0.03;;;;;;;9.73;81.77;95302.72;4374088;32;20190;-61
2022/11/29 12:30:17;;;;;;;0.27;0.27;;;;;;;9.77;81.35;95298.41;4375389;32;20209;-61
2022/11/29 12:33:02;;;;;;;0.10;0.10;;;;;;;9.60;82.73;95304.22;4382989;32;20184;-61
2022/11/29 12:35:40;;;;;;;0.67;0.67;;;;;;;9.60;83.24;95305.00;4380504;32;20261;-61
2022/11/29 12:38:33;;;;;;;0.20;0.20;;;;;;;9.49;83.04;95306.22;4376357;32;20272;-62
2022/11/29 12:41:21;;;;;;;0.10;0.10;;;;;;;9.41;83.89;95308.72;4360149;32;20220;-61
2022/11/29 12:44:04;;;;;;;0.40;0.30;;;;;;;9.18;84.41;95311.13;4373472;32;20204;-61
2022/11/29 12:46:30;;;;;;;0.10;0.10;;;;;;;9.11;84.99;95315.22;4368668;32;20305;-61
2022/11/29 12:49:41;;;;;;;0.30;0.30;;;;;;;9.06;84.92;95316.06;4383010;32;20181;-61
2022/11/29 12:52:20;;;;;;;0.20;0.20;;;;;;;9.23;84.63;95316.34;4380327;32;20202;-61